CST,Max TemperatureF,Mean TemperatureF,Min TemperatureF,Max Dew PointF,MeanDew PointF,Min DewpointF,Max Humidity, Mean Humidity, Min Humidity, Max Sea Level PressureIn, Mean Sea Level PressureIn, Min Sea Level PressureIn, Max VisibilityMiles, Mean VisibilityMiles, Min VisibilityMiles, Max Wind SpeedMPH, Mean Wind SpeedMPH, Max Gust SpeedMPH,PrecipitationIn, CloudCover, Events, WindDirDegrees
2013-2-1,-5,-15,-25,-17,-23,-33,84,70,54,30.10,30.04,30.00,10,10,10,10,5,,0.00,1,,265
2013-2-2,6,-14,-34,-2,-21,-44,85,64,43,30.05,29.94,29.83,10,10,4,6,1,,0.00,2,Snow,241
2013-2-3,3,-10,-23,-2,-11,-29,85,73,51,29.94,29.88,29.80,10,9,2,14,7,20,0.00,3,Snow,294
2013-2-4,5,-14,-34,1,-17,-42,85,68,56,29.94,29.80,29.59,10,9,1,9,2,,0.00,4,Snow,208
2013-2-5,12,-1,-14,3,-3,-18,92,76,45,30.00,29.77,29.55,10,7,0,12,4,17,0.01,3,Snow,309
2013-2-6,19,2,-16,16,2,-22,93,79,58,30.08,30.01,29.98,10,7,1,10,2,,0.00,7,Snow,134
2013-2-7,17,11,5,12,8,1,92,84,73,30.26,30.19,30.09,10,8,3,6,3,,0.00,8,Snow,33
2013-2-8,21,16,10,12,10,9,92,84,63,30.31,30.26,30.16,10,8,3,8,2,,0.00,6,Snow,166
2013-2-9,24,20,15,23,18,12,100,88,74,30.16,29.99,29.92,10,7,2,12,7,17,0.00,7,Snow,182
2013-2-10,26,24,23,25,24,21,100,93,86,29.93,29.67,29.39,10,5,0,18,5,25,0.18,8,Snow,70
2013-2-11,24,20,15,23,16,12,93,87,79,29.84,29.62,29.38,10,7,1,17,8,23,0.01,8,Snow,321
2013-2-12,28,19,10,21,16,9,93,84,69,29.85,29.73,29.62,10,9,2,13,5,17,0.00,6,Snow,231
2013-2-13,28,20,12,21,19,10,100,91,74,29.62,29.59,29.56,10,9,3,7,3,,0.01,6,,261
2013-2-14,24,12,1,21,8,-2,100,78,49,30.02,29.85,29.62,10,9,5,14,4,20,0.00,6,Snow,322
2013-2-15,8,-5,-20,1,-6,-26,92,76,52,30.15,30.11,30.03,10,10,7,13,5,20,0.00,1,,306
2013-2-16,12,-8,-27,1,-17,-33,92,73,48,30.12,30.08,30.02,10,8,0,5,0,,0.00,2,,49
2013-2-17,24,2,-20,16,2,-27,92,75,58,30.03,29.82,29.60,10,8,1,16,6,23,0.00,4,Snow,163
2013-2-18,24,14,3,23,15,-2,93,83,68,29.72,29.55,29.47,10,6,2,15,7,28,0.00,8,Snow,204
2013-2-19,3,-3,-9,-2,-10,-15,85,71,56,30.29,29.99,29.72,10,8,3,17,11,30,0.00,5,Snow,330
2013-2-20,10,-2,-14,-9,-16,-20,84,58,24,30.43,30.39,30.30,10,10,10,8,4,,0.00,0,,18
2013-2-21,24,2,-20,10,-7,-27,92,67,38,30.45,30.36,30.18,10,10,7,9,2,,0.00,1,,72
2013-2-22,26,18,10,23,17,9,100,91,80,30.18,29.96,29.81,10,7,2,12,5,,0.00,8,Snow,38
2013-2-23,32,20,8,21,17,7,100,81,60,29.86,29.79,29.75,10,9,4,8,1,,0.00,7,Snow,6
2013-2-24,37,18,0,19,12,-2,100,76,45,30.01,29.95,29.87,10,10,5,6,0,,0.00,0,,238
2013-2-25,37,19,1,18,10,-2,100,74,35,30.02,30.00,29.95,10,10,10,12,2,,0.00,1,,226
2013-2-26,41,20,-2,19,10,-6,93,73,33,30.04,30.00,29.96,10,10,10,8,1,,0.00,0,,44
2013-2-27,32,18,3,21,15,0,100,82,64,30.07,29.98,29.94,10,9,0,14,3,21,0.00,5,Fog,29
2013-2-28,28,21,12,18,11,0,86,66,47,30.29,30.18,30.07,10,10,10,10,7,20,0.00,4,Snow,28